Time;durP1;ratioP1;P1;durP2;ratioP2;P2;SDS_P1;SDS_P2;PMS_P1;PMS_P2;Temp;Humidity;BMP_temperature;BMP_pressure;BME280_temperature;BME280_humidity;BME280_pressure;Samples;Min_cycle;Max_cycle;Signal;HPM_P1;HPM_P2
2023/06/20 00:01:46;;;;;;;20.70;18.80;;;;;;;17.05;90.83;98885.86;109478;1251;59192;-77
2023/06/20 00:04:13;;;;;;;21.60;19.40;;;;;;;16.99;91.11;98889.67;109536;1251;58969;-77
2023/06/20 00:06:39;;;;;;;22.00;19.70;;;;;;;16.95;91.64;98890.42;109469;1251;64062;-77
2023/06/20 00:09:05;;;;;;;22.70;19.60;;;;;;;16.91;91.70;98887.29;109482;1251;58936;-77
2023/06/20 00:11:32;;;;;;;20.80;18.40;;;;;;;16.88;92.24;98886.10;109523;1251;59038;-78
2023/06/20 00:13:58;;;;;;;21.00;18.90;;;;;;;16.86;92.45;98888.06;109518;1251;58979;-78
2023/06/20 00:16:25;;;;;;;21.50;19.40;;;;;;;16.84;92.71;98892.58;109528;1251;59045;-78
2023/06/20 00:18:54;;;;;;;20.10;18.20;;;;;;;16.82;92.87;98899.34;109572;1249;59161;-78
2023/06/20 00:21:25;;;;;;;22.70;20.20;;;;;;;16.81;93.19;98899.48;109697;1249;59183;-77
2023/06/20 00:23:53;;;;;;;21.60;19.60;;;;;;;16.79;93.91;98899.83;109668;1249;59241;-78
2023/06/20 00:26:20;;;;;;;22.00;19.80;;;;;;;16.77;94.15;98899.71;109678;1250;66009;-77
2023/06/20 00:28:49;;;;;;;21.80;19.60;;;;;;;16.75;94.44;98900.02;109676;1250;59061;-78
2023/06/20 00:31:16;;;;;;;22.10;19.80;;;;;;;16.74;94.64;98896.75;109567;1249;64071;-78
2023/06/20 00:33:42;;;;;;;21.50;19.50;;;;;;;16.72;94.89;98897.08;109704;1249;58998;-78
2023/06/20 00:36:08;;;;;;;23.00;20.60;;;;;;;16.71;95.15;98900.23;109688;1250;59009;-78
2023/06/20 00:38:35;;;;;;;22.00;19.80;;;;;;;16.69;95.26;98901.66;109688;1250;66955;-77
2023/06/20 00:41:02;;;;;;;23.50;21.10;;;;;;;16.67;95.54;98903.79;109666;1250;59047;-79
2023/06/20 00:43:28;;;;;;;21.70;19.50;;;;;;;16.65;96.04;98897.92;109666;1250;64067;-78
2023/06/20 00:45:56;;;;;;;21.90;19.80;;;;;;;16.63;96.47;98896.42;109693;1250;58942;-79
2023/06/20 00:48:23;;;;;;;21.30;19.20;;;;;;;16.61;96.54;98899.40;109641;1250;58996;-79
2023/06/20 00:50:51;;;;;;;22.00;19.80;;;;;;;16.58;96.92;98898.73;109695;1250;66077;-78
2023/06/20 00:53:18;;;;;;;19.30;17.50;;;;;;;16.55;97.05;98896.34;109718;1251;69993;-78
2023/06/20 00:55:45;;;;;;;19.60;17.70;;;;;;;16.51;97.38;98896.33;109672;1250;63728;-78
2023/06/20 00:58:11;;;;;;;21.00;18.80;;;;;;;16.49;97.80;98894.91;109662;1249;59023;-78
2023/06/20 01:00:38;;;;;;;23.00;19.50;;;;;;;16.47;98.22;98895.63;109693;1249;59190;-80
2023/06/20 01:03:11;;;;;;;22.20;20.00;;;;;;;16.44;98.33;98892.14;109698;1250;65865;-78
2023/06/20 01:05:40;;;;;;;23.00;20.60;;;;;;;16.42;99.20;98896.45;109359;1249;59685;-77
2023/06/20 01:08:13;;;;;;;23.00;20.80;;;;;;;16.40;99.97;98898.45;109677;1249;64053;-79
2023/06/20 01:11:03;;;;;;;23.50;21.30;;;;;;;16.35;100.00;98898.92;109669;1249;58937;-77
2023/06/20 01:13:45;;;;;;;24.00;21.60;;;;;;;16.31;100.00;98902.20;109537;1251;163484;-77
2023/06/20 01:16:27;;;;;;;24.70;22.20;;;;;;;16.26;100.00;98901.20;109696;1250;67263;-78
2023/06/20 01:19:21;;;;;;;24.10;21.90;;;;;;;16.22;100.00;98898.09;109723;1250;60141;-78
2023/06/20 01:21:59;;;;;;;23.50;21.00;;;;;;;16.19;100.00;98902.34;109719;1249;64082;-77
2023/06/20 01:24:46;;;;;;;25.70;23.10;;;;;;;16.15;100.00;98901.87;109671;1249;58970;-78
2023/06/20 01:27:43;;;;;;;25.80;23.20;;;;;;;16.10;100.00;98903.56;109646;1249;58978;-79
2023/06/20 01:30:20;;;;;;;26.60;23.90;;;;;;;16.05;100.00;98900.19;109016;1257;64828;-78
2023/06/20 01:32:50;;;;;;;25.40;22.90;;;;;;;16.01;100.00;98900.73;108966;1258;59124;-77
2023/06/20 01:35:23;;;;;;;27.70;24.90;;;;;;;15.98;100.00;98895.98;108976;1257;62823;-78
2023/06/20 01:37:55;;;;;;;26.50;24.10;;;;;;;15.95;100.00;98894.84;108963;1257;59007;-78
2023/06/20 01:40:23;;;;;;;25.70;23.20;;;;;;;15.93;100.00;98897.95;109000;1258;59007;-77
2023/06/20 01:42:56;;;;;;;25.70;23.10;;;;;;;15.89;100.00;98896.15;109013;1258;66050;-77
2023/06/20 01:45:26;;;;;;;26.10;23.60;;;;;;;15.86;100.00;98893.91;109003;1259;60127;-78
2023/06/20 01:47:58;;;;;;;26.40;23.70;;;;;;;15.83;100.00;98897.59;108982;1257;62524;-78
2023/06/20 01:50:28;;;;;;;26.60;23.90;;;;;;;15.81;100.00;98897.05;108999;1257;59006;-77
2023/06/20 01:52:57;;;;;;;25.00;22.50;;;;;;;15.78;100.00;98894.04;108982;1259;59090;-78
2023/06/20 01:55:25;;;;;;;26.10;23.40;;;;;;;15.76;100.00;98891.55;109045;1258;64888;-78
2023/06/20 01:57:56;;;;;;;24.50;22.10;;;;;;;15.73;100.00;98890.36;108993;1257;60153;-78
2023/06/20 02:00:32;;;;;;;23.20;21.10;;;;;;;15.71;100.00;98887.58;109010;1257;64080;-78
2023/06/20 02:03:00;;;;;;;24.50;22.00;;;;;;;15.68;100.00;98887.09;108970;1258;59320;-79
2023/06/20 02:05:31;;;;;;;23.90;21.60;;;;;;;15.65;100.00;98886.02;109013;1257;59117;-78
2023/06/20 02:08:00;;;;;;;26.00;23.40;;;;;;;15.64;100.00;98889.08;109576;1252;66036;-78
2023/06/20 02:10:28;;;;;;;26.20;23.50;;;;;;;15.62;100.00;98892.08;109545;1251;59332;-78
2023/06/20 02:12:56;;;;;;;24.10;21.90;;;;;;;15.61;100.00;98892.02;109591;1251;64016;-78
2023/06/20 02:15:25;;;;;;;22.90;20.70;;;;;;;15.58;100.00;98888.61;109591;1251;58953;-78
2023/06/20 02:17:52;;;;;;;24.90;22.30;;;;;;;15.56;100.00;98889.91;109575;1251;58961;-78
2023/06/20 02:20:19;;;;;;;25.10;22.60;;;;;;;15.53;100.00;98891.06;109546;1251;64852;-78
2023/06/20 02:22:49;;;;;;;24.10;21.80;;;;;;;15.52;100.00;98891.67;109622;1251;59095;-78
2023/06/20 02:25:35;;;;;;;24.50;22.30;;;;;;;15.51;100.00;98891.47;109587;1250;64072;-78
2023/06/20 02:28:03;;;;;;;26.60;24.00;;;;;;;15.49;100.00;98893.39;109549;1250;58909;-78
2023/06/20 02:30:31;;;;;;;25.80;23.40;;;;;;;15.49;100.00;98893.42;109570;1251;59775;-78
2023/06/20 02:33:01;;;;;;;27.50;24.80;;;;;;;15.49;100.00;98893.45;109589;1250;66077;-79
2023/06/20 02:35:30;;;;;;;;;;;;;;;15.49;100.00;98891.64;109548;1251;59898;-79
2023/06/20 02:37:58;;;;;;;22.60;20.60;;;;;;;15.47;100.00;98891.23;109598;1251;64036;-79
2023/06/20 02:40:25;;;;;;;24.20;22.00;;;;;;;15.47;100.00;98887.50;109504;1251;58972;-78
2023/06/20 02:42:52;;;;;;;23.00;20.70;;;;;;;15.47;100.00;98888.01;109575;1251;59781;-78
2023/06/20 02:45:19;;;;;;;23.70;21.50;;;;;;;15.48;100.00;98889.52;109531;1251;64829;-78
2023/06/20 02:48:12;;;;;;;23.20;20.90;;;;;;;15.50;100.00;98888.48;109617;1251;58996;-78
2023/06/20 02:51:06;;;;;;;22.90;20.70;;;;;;;15.53;100.00;98890.70;109596;1251;64079;-79
2023/06/20 02:54:07;;;;;;;21.90;19.80;;;;;;;15.59;100.00;98892.67;109574;1251;58972;-79
2023/06/20 02:56:36;;;;;;;21.60;19.30;;;;;;;15.63;100.00;98896.67;109584;1250;59020;-77
2023/06/20 02:59:07;;;;;;;22.80;20.40;;;;;;;15.65;100.00;98898.44;109734;1249;74807;-78
2023/06/20 03:01:35;;;;;;;;;;;;;;;15.68;100.00;98901.21;109705;1249;60189;-78
2023/06/20 03:04:06;;;;;;;21.90;19.60;;;;;;;15.68;100.00;98900.48;109645;1251;64045;-78
2023/06/20 03:06:37;;;;;;;22.30;20.10;;;;;;;15.71;100.00;98893.81;109721;1250;59019;-78
2023/06/20 03:09:04;;;;;;;22.30;20.20;;;;;;;15.73;100.00;98892.13;109733;1250;58947;-78
2023/06/20 03:11:31;;;;;;;21.90;19.60;;;;;;;15.78;100.00;98891.75;109680;1251;66018;-78
2023/06/20 03:13:58;;;;;;;22.40;20.30;;;;;;;15.82;100.00;98888.67;109711;1250;60085;-77
2023/06/20 03:16:26;;;;;;;22.30;20.20;;;;;;;15.86;100.00;98885.81;109661;1250;64040;-78
2023/06/20 03:18:53;;;;;;;21.50;19.40;;;;;;;15.93;100.00;98885.36;109712;1250;59273;-77
2023/06/20 03:21:21;;;;;;;20.80;18.80;;;;;;;16.03;100.00;98889.30;109679;1250;59035;-78
2023/06/20 03:23:47;;;;;;;19.70;17.80;;;;;;;16.13;100.00;98889.34;109660;1251;65210;-78
2023/06/20 03:26:14;;;;;;;21.20;19.30;;;;;;;16.23;100.00;98891.63;109701;1250;59204;-79
2023/06/20 03:28:40;;;;;;;21.00;18.90;;;;;;;16.34;100.00;98894.37;109688;1250;59086;-78
2023/06/20 03:31:07;;;;;;;19.80;18.00;;;;;;;16.77;100.00;98892.98;109732;1250;58959;-79
2023/06/20 03:33:33;;;;;;;18.90;17.10;;;;;;;17.59;100.00;98890.05;109440;1249;59033;-78
2023/06/20 03:36:00;;;;;;;18.30;16.80;;;;;;;18.34;100.00;98892.63;109697;1251;59071;-79
2023/06/20 03:38:27;;;;;;;17.40;15.90;;;;;;;19.03;100.00;98893.56;109732;1250;61031;-80
2023/06/20 03:40:54;;;;;;;16.30;14.80;;;;;;;19.67;100.00;98896.30;109693;1249;64255;-79
2023/06/20 03:43:20;;;;;;;17.00;15.50;;;;;;;20.20;98.89;98897.27;109661;1249;58930;-79
2023/06/20 03:45:47;;;;;;;15.70;14.20;;;;;;;20.78;95.86;98895.30;109683;1249;59721;-78
2023/06/20 03:48:13;;;;;;;15.90;14.50;;;;;;;21.29;91.57;98897.45;109671;1250;59025;-79
2023/06/20 03:50:40;;;;;;;15.20;13.90;;;;;;;21.68;87.40;98898.13;109690;1251;58948;-78
2023/06/20 03:53:06;;;;;;;14.80;13.40;;;;;;;22.02;85.15;98898.95;109703;1250;59062;-78
2023/06/20 03:55:33;;;;;;;16.10;14.80;;;;;;;22.41;81.75;98897.30;109390;1250;59367;-78
2023/06/20 03:57:59;;;;;;;15.50;14.00;;;;;;;22.74;79.31;98894.83;109694;1250;59059;-79
2023/06/20 04:00:26;;;;;;;14.60;13.30;;;;;;;23.15;77.90;98889.80;109696;1249;59436;-79
2023/06/20 04:02:53;;;;;;;15.80;14.30;;;;;;;23.61;76.10;98893.79;109719;1251;60144;-78
2023/06/20 04:05:19;;;;;;;14.00;12.90;;;;;;;24.09;73.96;98895.58;109696;1250;62991;-78
2023/06/20 04:07:46;;;;;;;14.00;12.90;;;;;;;24.53;71.85;98898.63;109662;1250;59046;-79
2023/06/20 04:10:13;;;;;;;14.40;13.10;;;;;;;24.86;69.85;98896.41;109489;1250;59271;-79
2023/06/20 04:12:41;;;;;;;13.70;12.50;;;;;;;25.15;68.25;98896.52;109668;1249;64869;-78
2023/06/20 04:15:09;;;;;;;16.80;13.00;;;;;;;25.46;66.99;98899.42;109720;1251;60143;-78
2023/06/20 04:17:37;;;;;;;13.40;12.30;;;;;;;25.73;65.80;98898.18;109666;1250;63879;-78
2023/06/20 04:20:11;;;;;;;12.80;11.60;;;;;;;25.88;64.62;98900.79;109678;1249;59024;-79
2023/06/20 04:22:42;;;;;;;12.20;11.30;;;;;;;26.07;63.37;98903.89;109571;1250;59082;-79
2023/06/20 04:25:09;;;;;;;12.70;11.40;;;;;;;26.27;62.42;98905.09;109698;1251;66419;-79
2023/06/20 04:27:36;;;;;;;12.30;11.30;;;;;;;26.54;61.38;98909.29;109699;1250;58978;-79
2023/06/20 04:30:04;;;;;;;12.30;11.20;;;;;;;26.76;60.47;98915.14;109687;1250;64227;-78
2023/06/20 04:32:30;;;;;;;12.10;10.90;;;;;;;26.80;59.98;98917.10;109649;1249;59024;-78
2023/06/20 04:34:57;;;;;;;12.10;11.10;;;;;;;27.07;59.26;98921.23;109727;1249;58967;-79
2023/06/20 04:37:23;;;;;;;11.50;10.50;;;;;;;27.35;58.20;98921.53;109746;1250;59482;-80
2023/06/20 04:39:50;;;;;;;11.70;10.60;;;;;;;27.63;57.21;98919.66;109733;1251;59297;-79
2023/06/20 04:42:16;;;;;;;11.80;10.70;;;;;;;27.94;56.20;98918.08;109683;1250;64060;-79
2023/06/20 04:44:44;;;;;;;11.40;10.50;;;;;;;28.17;55.38;98914.35;109702;1251;58920;-79
2023/06/20 04:47:14;;;;;;;11.90;10.80;;;;;;;28.41;54.61;98921.33;109700;1250;58998;-79
2023/06/20 04:49:40;;;;;;;12.10;11.10;;;;;;;28.57;53.81;98921.06;109700;1250;64650;-79
2023/06/20 04:52:07;;;;;;;10.10;9.30;;;;;;;28.76;53.26;98921.65;109722;1250;60110;-79
2023/06/20 04:54:33;;;;;;;10.50;9.50;;;;;;;28.87;52.19;98921.82;109682;1250;64058;-79
2023/06/20 04:57:02;;;;;;;11.10;10.10;;;;;;;28.87;51.96;98922.48;109674;1250;59288;-79
2023/06/20 04:59:29;;;;;;;11.10;10.30;;;;;;;28.91;51.58;98920.90;109665;1249;59168;-79
2023/06/20 05:01:55;;;;;;;11.40;10.20;;;;;;;28.85;51.13;98919.67;109657;1250;64411;-78
2023/06/20 05:04:22;;;;;;;11.40;10.50;;;;;;;28.81;51.30;98920.73;109698;1249;59083;-79
2023/06/20 05:06:48;;;;;;;11.40;10.50;;;;;;;28.89;50.99;98919.81;109680;1250;64075;-80
2023/06/20 05:09:15;;;;;;;11.50;10.40;;;;;;;28.95;50.25;98920.45;109690;1251;58966;-77
2023/06/20 05:11:41;;;;;;;10.90;9.90;;;;;;;28.76;49.92;98921.52;109682;1251;59010;-79
2023/06/20 05:14:08;;;;;;;13.30;11.60;;;;;;;28.86;49.91;98919.59;109724;1250;59129;-79
2023/06/20 05:16:34;;;;;;;11.60;10.60;;;;;;;29.17;49.32;98918.89;109686;1250;59003;-79
2023/06/20 05:19:01;;;;;;;11.20;10.20;;;;;;;29.46;48.50;98913.81;109681;1249;58984;-81
2023/06/20 05:21:27;;;;;;;11.70;10.60;;;;;;;29.74;47.89;98908.38;109680;1250;59055;-79
2023/06/20 05:23:54;;;;;;;11.20;10.00;;;;;;;30.03;47.64;98903.50;109688;1251;59098;-80
2023/06/20 05:26:20;;;;;;;11.30;10.30;;;;;;;30.27;47.03;98903.16;109556;1251;66140;-78
2023/06/20 05:28:47;;;;;;;10.30;9.50;;;;;;;30.43;46.20;98906.89;109702;1250;59457;-80
2023/06/20 05:31:13;;;;;;;11.40;9.70;;;;;;;30.52;45.83;98906.42;109658;1250;59090;-79
2023/06/20 05:33:40;;;;;;;11.40;10.30;;;;;;;30.65;45.44;98906.87;109683;1250;59075;-80
2023/06/20 05:36:06;;;;;;;11.10;10.00;;;;;;;30.75;45.15;98902.70;109723;1250;59044;-79
2023/06/20 05:38:35;;;;;;;10.80;9.70;;;;;;;30.83;44.85;98907.08;109693;1250;64889;-80
2023/06/20 05:41:02;;;;;;;11.10;10.00;;;;;;;30.86;44.83;98911.40;109683;1250;59001;-79
2023/06/20 05:43:29;;;;;;;11.10;10.30;;;;;;;30.96;44.96;98910.43;109488;1251;64029;-78
2023/06/20 05:45:57;;;;;;;11.10;10.00;;;;;;;30.86;44.95;98911.52;109691;1251;58941;-79
2023/06/20 05:48:25;;;;;;;10.80;9.90;;;;;;;30.89;44.44;98917.20;109695;1251;59054;-79
2023/06/20 05:50:51;;;;;;;11.20;10.10;;;;;;;30.89;44.34;98919.12;109722;1249;66063;-79
2023/06/20 05:53:20;;;;;;;10.80;9.90;;;;;;;30.94;44.37;98921.91;109693;1249;60154;-78
2023/06/20 05:55:50;;;;;;;13.80;10.50;;;;;;;31.10;44.09;98928.23;109695;1251;64095;-80
2023/06/20 05:58:18;;;;;;;10.90;10.10;;;;;;;31.28;43.78;98927.41;109677;1251;59234;-84
2023/06/20 06:00:45;;;;;;;9.90;9.10;;;;;;;31.42;43.44;98927.27;109544;1250;59049;-75
2023/06/20 06:03:12;;;;;;;12.30;9.90;;;;;;;31.53;43.16;98927.08;109675;1249;66058;-76
2023/06/20 06:05:39;;;;;;;10.70;9.70;;;;;;;31.67;43.13;98929.27;109676;1250;59069;-74
2023/06/20 06:08:06;;;;;;;11.60;10.30;;;;;;;31.82;43.03;98934.95;109699;1251;59096;-73
2023/06/20 06:10:33;;;;;;;9.70;9.00;;;;;;;31.91;42.71;98933.43;109670;1250;58927;-75
2023/06/20 06:12:59;;;;;;;10.20;9.20;;;;;;;32.07;42.55;98936.73;109663;1251;59047;-74
2023/06/20 06:15:26;;;;;;;10.90;9.90;;;;;;;32.13;42.16;98936.73;109639;1251;58999;-76
2023/06/20 06:17:52;;;;;;;10.70;9.60;;;;;;;31.99;41.77;98939.47;109684;1251;58969;-74
2023/06/20 06:20:19;;;;;;;10.50;9.40;;;;;;;31.88;42.25;98936.83;109659;1249;59016;-75
2023/06/20 06:22:46;;;;;;;10.30;9.30;;;;;;;31.85;42.41;98936.51;109649;1250;58971;-76
2023/06/20 06:25:12;;;;;;;10.70;9.90;;;;;;;31.95;42.21;98936.55;109692;1253;59015;-75
2023/06/20 06:27:39;;;;;;;10.60;9.70;;;;;;;32.17;42.11;98929.04;109662;1251;65718;-74
2023/06/20 06:30:06;;;;;;;9.40;8.60;;;;;;;32.41;41.82;98930.23;109677;1251;58963;-74
2023/06/20 06:32:36;;;;;;;11.10;9.60;;;;;;;32.63;41.72;98932.48;109650;1251;64233;-75
2023/06/20 06:35:05;;;;;;;10.50;9.70;;;;;;;32.88;41.15;98932.38;109664;1250;59347;-75
2023/06/20 06:37:32;;;;;;;9.50;8.50;;;;;;;33.10;40.81;98929.29;109681;1251;58882;-74
2023/06/20 06:39:59;;;;;;;10.00;9.30;;;;;;;33.14;40.59;98927.27;109704;1250;66165;-75
2023/06/20 06:42:26;;;;;;;10.60;9.80;;;;;;;33.03;40.58;98924.86;109692;1251;58987;-75
2023/06/20 06:44:53;;;;;;;12.80;9.90;;;;;;;32.81;40.67;98924.91;109691;1251;63338;-74
2023/06/20 06:47:19;;;;;;;10.40;9.50;;;;;;;32.70;40.71;98929.92;109404;1251;59049;-74
2023/06/20 06:49:46;;;;;;;10.60;9.50;;;;;;;32.63;40.84;98932.10;109714;1250;59035;-74
2023/06/20 06:52:12;;;;;;;10.00;9.10;;;;;;;32.57;40.99;98932.98;109697;1253;58854;-73
2023/06/20 06:54:39;;;;;;;11.30;10.30;;;;;;;32.65;41.27;98937.61;109703;1250;60157;-74
2023/06/20 06:57:05;;;;;;;11.00;9.80;;;;;;;32.69;41.22;98938.02;109394;1250;59061;-74
2023/06/20 06:59:32;;;;;;;10.70;9.80;;;;;;;32.75;41.15;98940.71;109671;1250;59146;-73
2023/06/20 07:01:58;;;;;;;10.60;9.70;;;;;;;32.83;40.95;98938.84;109730;1251;59068;-74
2023/06/20 07:04:25;;;;;;;10.20;9.50;;;;;;;32.83;40.84;98938.85;109686;1250;59061;-75
2023/06/20 07:06:51;;;;;;;9.30;8.30;;;;;;;32.91;40.60;98935.28;109708;1250;59048;-74
2023/06/20 07:09:18;;;;;;;8.80;8.10;;;;;;;32.99;40.02;98932.86;109704;1249;59053;-74
2023/06/20 07:11:44;;;;;;;10.50;9.50;;;;;;;32.95;39.77;98935.04;109655;1250;58988;-73
2023/06/20 07:14:11;;;;;;;9.60;8.70;;;;;;;33.01;40.10;98938.69;109698;1250;58896;-74
2023/06/20 07:16:38;;;;;;;10.60;9.60;;;;;;;32.97;40.14;98937.78;109699;1251;66013;-74
2023/06/20 07:19:04;;;;;;;9.60;8.80;;;;;;;32.91;40.30;98940.64;109680;1250;60199;-74
2023/06/20 07:21:31;;;;;;;9.50;8.70;;;;;;;32.97;40.28;98941.20;109666;1251;59267;-74
2023/06/20 07:23:57;;;;;;;9.30;8.60;;;;;;;33.06;40.21;98943.58;109623;1249;59386;-75
2023/06/20 07:26:24;;;;;;;10.00;9.10;;;;;;;33.12;40.13;98944.96;109552;1249;59037;-74
2023/06/20 07:28:50;;;;;;;11.40;8.90;;;;;;;33.06;39.66;98946.72;109655;1249;59124;-74
2023/06/20 07:31:18;;;;;;;10.00;9.10;;;;;;;32.91;39.95;98948.27;109665;1251;59000;-76
2023/06/20 07:33:46;;;;;;;10.30;9.40;;;;;;;32.88;40.07;98944.41;109680;1249;63831;-74
2023/06/20 07:36:13;;;;;;;9.80;8.80;;;;;;;32.74;40.37;98943.55;109708;1251;59038;-74
2023/06/20 07:38:39;;;;;;;10.30;9.40;;;;;;;32.49;40.40;98940.64;109668;1250;59056;-74
2023/06/20 07:41:06;;;;;;;10.40;9.60;;;;;;;32.19;40.76;98938.05;109703;1251;65861;-74
2023/06/20 07:43:32;;;;;;;10.50;9.40;;;;;;;31.93;41.11;98938.56;109697;1250;59079;-74
2023/06/20 07:45:59;;;;;;;9.50;8.60;;;;;;;31.76;41.76;98943.17;109686;1251;59030;-73
2023/06/20 07:48:27;;;;;;;10.20;9.30;;;;;;;31.73;42.08;98942.18;109658;1251;59729;-74
2023/06/20 07:50:53;;;;;;;9.90;9.00;;;;;;;31.57;41.88;98944.27;109691;1253;59023;-74
2023/06/20 07:53:20;;;;;;;10.00;9.20;;;;;;;31.37;41.82;98942.56;109548;1251;64873;-74
2023/06/20 07:55:46;;;;;;;8.90;8.10;;;;;;;31.23;41.89;98939.08;109744;1249;59019;-74
2023/06/20 07:58:13;;;;;;;9.40;8.70;;;;;;;31.15;41.62;98943.48;109683;1250;59040;-74
2023/06/20 08:00:40;;;;;;;10.50;8.90;;;;;;;31.12;41.78;98942.77;109698;1249;59204;-75
2023/06/20 08:03:07;;;;;;;9.10;8.10;;;;;;;31.11;42.04;98948.85;109686;1250;58880;-74
2023/06/20 08:05:34;;;;;;;9.30;8.50;;;;;;;31.14;42.17;98950.41;109689;1250;66015;-74
2023/06/20 08:08:00;;;;;;;9.10;8.30;;;;;;;31.16;42.07;98948.70;109675;1251;58940;-74
2023/06/20 08:10:27;;;;;;;7.90;7.40;;;;;;;31.20;42.07;98949.58;109655;1250;64265;-74
2023/06/20 08:12:53;;;;;;;7.80;7.20;;;;;;;31.33;41.82;98948.77;109670;1253;58964;-74
2023/06/20 08:15:20;;;;;;;7.40;6.80;;;;;;;31.39;41.62;98949.61;109667;1251;59005;-74
2023/06/20 08:17:46;;;;;;;8.00;7.20;;;;;;;31.47;41.53;98950.80;109415;1251;65711;-74
2023/06/20 08:20:13;;;;;;;8.60;7.70;;;;;;;31.47;40.99;98949.48;109716;1251;59021;-74
2023/06/20 08:22:39;;;;;;;7.30;6.70;;;;;;;31.51;40.57;98947.75;109704;1250;62561;-74
2023/06/20 08:25:06;;;;;;;7.70;7.10;;;;;;;31.62;40.08;98947.05;109709;1251;59010;-75
2023/06/20 08:27:32;;;;;;;7.40;6.70;;;;;;;31.74;39.69;98944.95;109677;1251;58922;-75
2023/06/20 08:29:59;;;;;;;7.90;7.20;;;;;;;31.88;39.53;98942.90;109680;1251;64475;-74
2023/06/20 08:32:25;;;;;;;8.00;7.40;;;;;;;31.95;38.73;98941.25;109648;1251;59894;-74
2023/06/20 08:34:52;;;;;;;7.50;6.90;;;;;;;31.98;38.61;98939.17;109686;1251;64127;-74
2023/06/20 08:37:21;;;;;;;8.40;7.80;;;;;;;32.02;38.75;98940.42;109680;1251;59138;-74
2023/06/20 08:39:48;;;;;;;7.40;6.90;;;;;;;32.05;38.40;98944.23;109702;1250;59310;-74
2023/06/20 08:42:15;;;;;;;7.70;7.10;;;;;;;32.04;38.08;98942.17;109688;1249;66005;-74
2023/06/20 08:44:42;;;;;;;8.40;7.60;;;;;;;32.05;38.21;98941.35;109701;1251;59041;-74
2023/06/20 08:47:08;;;;;;;7.50;7.00;;;;;;;32.09;38.05;98944.70;109537;1251;63878;-75
2023/06/20 08:49:35;;;;;;;8.50;7.80;;;;;;;32.15;38.19;98949.88;109700;1250;58977;-74
2023/06/20 08:52:07;;;;;;;7.80;7.20;;;;;;;32.26;38.06;98946.00;109672;1251;59030;-74
2023/06/20 08:54:38;;;;;;;7.50;7.00;;;;;;;32.30;38.15;98947.89;109714;1253;64868;-74
2023/06/20 08:57:06;;;;;;;7.90;7.20;;;;;;;32.35;38.00;98946.66;109648;1251;60129;-74
2023/06/20 08:59:36;;;;;;;7.70;7.10;;;;;;;32.37;37.84;98944.64;109398;1251;63685;-74
2023/06/20 09:02:03;;;;;;;8.30;7.60;;;;;;;32.49;37.85;98941.65;109682;1250;59015;-74
2023/06/20 09:04:30;;;;;;;8.10;7.50;;;;;;;32.54;37.95;98939.66;109692;1250;59005;-74
2023/06/20 09:06:56;;;;;;;8.60;7.90;;;;;;;32.61;37.80;98936.48;109716;1251;64870;-74
2023/06/20 09:09:23;;;;;;;8.10;7.50;;;;;;;32.68;37.61;98937.42;109713;1250;60117;-73
2023/06/20 09:11:58;;;;;;;8.40;7.50;;;;;;;32.76;37.52;98934.70;109715;1251;64082;-73
2023/06/20 09:14:29;;;;;;;8.10;7.30;;;;;;;32.86;37.57;98933.61;109662;1249;58946;-74
2023/06/20 09:16:56;;;;;;;8.50;7.80;;;;;;;32.89;37.24;98933.33;109715;1251;59163;-74
2023/06/20 09:19:23;;;;;;;8.00;7.40;;;;;;;32.86;37.16;98929.30;109652;1251;65737;-74
2023/06/20 09:21:50;;;;;;;8.00;7.30;;;;;;;32.85;36.62;98930.50;109669;1251;59978;-74
2023/06/20 09:24:21;;;;;;;8.80;8.00;;;;;;;32.78;36.20;98932.15;109683;1250;62832;-74
2023/06/20 09:26:47;;;;;;;8.10;7.40;;;;;;;32.65;35.88;98935.48;109667;1251;58995;-74
2023/06/20 09:29:16;;;;;;;8.80;8.00;;;;;;;32.58;35.70;98936.23;109726;1250;59016;-74
2023/06/20 09:31:45;;;;;;;8.30;7.60;;;;;;;32.49;35.57;98936.08;109647;1251;64857;-74
2023/06/20 09:34:13;;;;;;;8.80;8.10;;;;;;;32.40;35.31;98931.09;109655;1251;59612;-75
2023/06/20 09:36:41;;;;;;;8.20;7.50;;;;;;;32.24;35.41;98924.82;109717;1249;62849;-74
2023/06/20 09:39:11;;;;;;;7.70;7.10;;;;;;;32.14;35.72;98924.12;109338;1249;59154;-74
2023/06/20 09:41:43;;;;;;;8.20;7.50;;;;;;;32.11;35.85;98919.80;109577;1251;58946;-74
2023/06/20 09:44:11;;;;;;;8.10;7.50;;;;;;;32.16;36.06;98920.08;109708;1250;66454;-74
2023/06/20 09:46:38;;;;;;;8.30;7.40;;;;;;;32.16;36.17;98914.18;109711;1250;59850;-74
2023/06/20 09:49:05;;;;;;;8.00;7.40;;;;;;;32.23;35.85;98917.45;109697;1251;64101;-74
2023/06/20 09:51:50;;;;;;;8.10;7.00;;;;;;;32.24;35.64;98915.77;109644;1251;59006;-74
2023/06/20 09:54:34;;;;;;;7.50;6.90;;;;;;;32.34;35.51;98915.86;109671;1251;58992;-74
2023/06/20 09:57:07;;;;;;;7.90;7.30;;;;;;;32.33;35.51;98914.18;109687;1250;65731;-74
2023/06/20 09:59:38;;;;;;;8.50;7.80;;;;;;;32.43;35.87;98913.94;109715;1251;59042;-74
2023/06/20 10:02:07;;;;;;;8.20;7.50;;;;;;;32.64;35.81;98916.50;109676;1251;63750;-74
2023/06/20 10:04:39;;;;;;;;;;;;;;;32.83;35.93;98911.04;109700;1251;58939;-74
2023/06/20 10:07:05;;;;;;;9.60;7.40;;;;;;;33.03;35.75;98913.27;109691;1249;58963;-74
2023/06/20 10:09:32;;;;;;;8.80;8.00;;;;;;;33.07;35.68;98912.73;109727;1250;66021;-74
2023/06/20 10:11:59;;;;;;;10.00;8.20;;;;;;;32.99;35.51;98909.45;109715;1251;59052;-74
2023/06/20 10:14:26;;;;;;;8.30;7.00;;;;;;;32.97;35.74;98906.47;109664;1251;63765;-74
2023/06/20 10:16:52;;;;;;;8.70;7.60;;;;;;;33.02;35.85;98906.45;109648;1250;58966;-74
2023/06/20 10:19:19;;;;;;;8.60;7.90;;;;;;;33.11;35.49;98905.12;109732;1249;58917;-74
2023/06/20 10:21:59;;;;;;;7.90;7.10;;;;;;;33.11;34.65;98898.83;109716;1251;64832;-74
2023/06/20 10:24:28;;;;;;;8.80;8.00;;;;;;;33.00;34.37;98895.70;109706;1249;59052;-74
2023/06/20 10:26:59;;;;;;;9.20;8.10;;;;;;;33.03;34.78;98893.98;109418;1250;64124;-74
2023/06/20 10:29:27;;;;;;;7.60;7.10;;;;;;;33.23;35.06;98894.14;109394;1251;59498;-74
2023/06/20 10:32:13;;;;;;;9.00;8.20;;;;;;;33.32;34.67;98890.13;109707;1249;58964;-74
2023/06/20 10:34:39;;;;;;;8.30;7.60;;;;;;;33.18;33.91;98889.98;109505;1251;64650;-74
2023/06/20 10:37:16;;;;;;;8.30;7.60;;;;;;;33.05;33.76;98889.77;109721;1250;59785;-74
2023/06/20 10:40:01;;;;;;;8.50;7.60;;;;;;;33.00;33.71;98883.56;109672;1250;63828;-75
2023/06/20 10:42:31;;;;;;;8.70;7.80;;;;;;;33.09;34.03;98879.14;109345;1249;59470;-74
2023/06/20 10:45:21;;;;;;;7.90;7.20;;;;;;;33.17;33.75;98877.94;109420;1249;58964;-74
2023/06/20 10:47:50;;;;;;;8.50;7.80;;;;;;;33.31;33.87;98873.93;109664;1250;65854;-74
2023/06/20 10:50:17;;;;;;;8.60;7.80;;;;;;;33.39;33.82;98874.71;109677;1250;60221;-74
2023/06/20 10:52:44;;;;;;;8.00;7.30;;;;;;;33.44;33.71;98872.96;109673;1250;62523;-74
2023/06/20 10:55:16;;;;;;;8.10;7.40;;;;;;;33.42;33.90;98875.54;109705;1249;59245;-74
2023/06/20 10:57:46;;;;;;;8.50;7.70;;;;;;;33.52;34.04;98877.73;109389;1251;59052;-75
2023/06/20 11:00:17;;;;;;;8.70;7.90;;;;;;;33.65;33.84;98880.41;109449;1250;65924;-75
2023/06/20 11:02:48;;;;;;;8.80;8.10;;;;;;;33.71;33.54;98878.16;109681;1250;59890;-75
2023/06/20 11:05:16;;;;;;;8.70;7.90;;;;;;;33.74;33.29;98873.52;109721;1250;64995;-75
2023/06/20 11:08:09;;;;;;;7.80;7.10;;;;;;;33.80;32.97;98874.69;109722;1249;59005;-75
2023/06/20 11:10:37;;;;;;;8.50;7.90;;;;;;;33.80;32.98;98872.36;109021;1257;58962;-74
2023/06/20 11:13:05;;;;;;;8.70;7.90;;;;;;;33.83;33.18;98867.98;108984;1259;64507;-74
2023/06/20 11:15:36;;;;;;;9.00;8.10;;;;;;;33.93;32.80;98862.12;108943;1258;60000;-75
2023/06/20 11:18:04;;;;;;;8.50;7.80;;;;;;;33.74;32.22;98866.10;109012;1258;62840;-74
2023/06/20 11:20:37;;;;;;;8.00;7.40;;;;;;;33.70;32.46;98866.92;109011;1257;59075;-75
2023/06/20 11:23:04;;;;;;;9.00;8.20;;;;;;;33.84;32.74;98864.46;108994;1257;58969;-74